createdAt,value
2022-09-28T00:00:41.522Z,98490.65
2022-09-28T00:06:06.714Z,98482.88
2022-09-28T00:11:15.609Z,98478.17
2022-09-28T00:16:21.284Z,98472.35
2022-09-28T00:21:27.099Z,98468.21
2022-09-28T00:26:31.462Z,98453.94
2022-09-28T00:31:34.592Z,98449.52
2022-09-28T00:36:37.375Z,98441.74
2022-09-28T00:41:40.576Z,98440.77
2022-09-28T00:46:43.499Z,98435.66
2022-09-28T00:51:48.442Z,98428.29
2022-09-28T00:56:51.416Z,98420.99
2022-09-28T01:01:54.318Z,98425.73
2022-09-28T01:06:59.202Z,98419.55
2022-09-28T01:12:02.692Z,98412.80
2022-09-28T01:17:15.554Z,98412.75
2022-09-28T01:22:36.483Z,98404.83
2022-09-28T01:27:44.851Z,98400.41
2022-09-28T01:33:01.499Z,98398.67
2022-09-28T01:38:09.500Z,98399.09
2022-09-28T01:43:20.080Z,98394.59
2022-09-28T01:48:43.878Z,98392.25
2022-09-28T01:53:51.929Z,98394.55
2022-09-28T01:59:00.244Z,98395.61
2022-09-28T02:04:12.833Z,98391.10
2022-09-28T02:09:37.640Z,98385.48
2022-09-28T02:14:42.521Z,98381.45
2022-09-28T02:19:45.187Z,98382.89
2022-09-28T02:24:57.101Z,98377.84
2022-09-28T02:30:00.543Z,98381.14
2022-09-28T02:35:03.300Z,98383.30
2022-09-28T02:40:29.327Z,98383.71
2022-09-28T02:46:16.571Z,98387.90
2022-09-28T02:51:41.022Z,98376.19
2022-09-28T02:57:11.607Z,98366.05
2022-09-28T03:02:25.570Z,98364.87
2022-09-28T03:07:40.619Z,98359.14
2022-09-28T03:12:47.261Z,98353.36
2022-09-28T03:17:50.009Z,98345.90
2022-09-28T03:23:12.685Z,98339.98
2022-09-28T03:28:15.610Z,98338.01
2022-09-28T03:33:19.919Z,98339.38
2022-09-28T03:38:22.581Z,98340.13
2022-09-28T03:43:26.859Z,98332.54
2022-09-28T03:48:35.080Z,98335.42
2022-09-28T03:53:38.407Z,98340.88
2022-09-28T03:58:41.057Z,98326.97
2022-09-28T04:03:44.847Z,98327.30
2022-09-28T04:08:47.921Z,98322.73
2022-09-28T04:13:50.824Z,98319.96
2022-09-28T04:18:53.698Z,98319.52
2022-09-28T04:23:58.279Z,98314.67
2022-09-28T04:29:16.251Z,98312.28
2022-09-28T04:34:21.535Z,98313.31
2022-09-28T04:39:24.292Z,98309.27
2022-09-28T04:44:26.961Z,98301.77
2022-09-28T04:49:30.145Z,98297.42
2022-09-28T04:54:33.174Z,98299.36
2022-09-28T04:59:37.642Z,98301.98
2022-09-28T05:04:41.072Z,98295.48
2022-09-28T05:09:44.006Z,98285.92
2022-09-28T05:14:46.718Z,98286.84
2022-09-28T05:19:49.382Z,98288.75
2022-09-28T05:24:52.158Z,98284.02
2022-09-28T05:29:54.836Z,98271.95
2022-09-28T05:34:57.587Z,98261.16
2022-09-28T05:40:00.460Z,98262.35
2022-09-28T05:45:05.218Z,98275.66
2022-09-28T05:50:08.744Z,98288.73
2022-09-28T05:55:11.400Z,98291.12
2022-09-28T06:00:14.391Z,98282.88
2022-09-28T06:05:17.073Z,98278.29
2022-09-28T06:10:19.808Z,98276.52
2022-09-28T06:15:24.224Z,98273.92
2022-09-28T06:20:29.434Z,98261.65
2022-09-28T06:25:32.484Z,98267.86
2022-09-28T06:30:38.456Z,98266.88
2022-09-28T06:35:42.346Z,98276.67
2022-09-28T06:40:45.813Z,98285.52
2022-09-28T06:45:53.635Z,98290.02
2022-09-28T06:50:56.478Z,98285.18
2022-09-28T06:56:00.007Z,98263.30
2022-09-28T07:01:04.296Z,98262.98
2022-09-28T07:06:11.461Z,98267.06
2022-09-28T07:11:14.217Z,98259.04
2022-09-28T07:16:16.977Z,98271.16
2022-09-28T07:21:29.188Z,98284.44
2022-09-28T07:26:33.405Z,98302.31
2022-09-28T07:31:36.123Z,98294.06
2022-09-28T07:36:39.107Z,98288.35
2022-09-28T07:41:43.148Z,98274.79
2022-09-28T07:46:46.669Z,98291.05
2022-09-28T07:51:49.396Z,98282.90
2022-09-28T07:56:52.086Z,98311.59
2022-09-28T08:01:54.894Z,98329.92
2022-09-28T08:06:57.684Z,98327.52
2022-09-28T08:12:00.357Z,98320.25
2022-09-28T08:17:04.723Z,98322.08
2022-09-28T08:22:08.377Z,98326.44
2022-09-28T08:27:11.588Z,98334.74
2022-09-28T08:32:14.915Z,98332.10
2022-09-28T08:37:18.050Z,98328.41
2022-09-28T08:42:21.066Z,98333.27
2022-09-28T08:48:19.091Z,98339.93
2022-09-28T08:53:47.374Z,98347.00
2022-09-28T08:58:56.273Z,98366.73
2022-09-28T09:04:03.087Z,98382.11
2022-09-28T09:09:36.275Z,98379.27
2022-09-28T09:15:02.689Z,98383.04
2022-09-28T09:20:30.244Z,98389.77
2022-09-28T09:25:38.718Z,98403.43
2022-09-28T09:31:08.430Z,98416.50
2022-09-28T09:36:20.009Z,98432.41
2022-09-28T09:41:47.266Z,98439.40
2022-09-28T09:47:08.240Z,98438.40
2022-09-28T09:52:23.955Z,98438.48
2022-09-28T09:57:39.626Z,98446.95
2022-09-28T10:02:47.357Z,98458.98
2022-09-28T10:08:03.257Z,98459.08
2022-09-28T10:13:11.318Z,98457.91
2022-09-28T10:18:16.969Z,98457.55
2022-09-28T10:23:25.894Z,98459.71
2022-09-28T10:28:48.874Z,98457.36
2022-09-28T10:33:53.904Z,98459.98
2022-09-28T10:38:57.928Z,98459.31
2022-09-28T10:44:06.908Z,98463.69
2022-09-28T10:49:22.288Z,98469.15
2022-09-28T10:54:30.239Z,98467.17
2022-09-28T10:59:44.515Z,98464.98
2022-09-28T11:04:54.232Z,98468.77
2022-09-28T11:09:58.974Z,98471.48
2022-09-28T11:15:05.138Z,98477.52
2022-09-28T11:20:29.405Z,98491.89
2022-09-28T11:25:32.142Z,98496.11
2022-09-28T11:30:34.783Z,98495.92
2022-09-28T11:36:02.200Z,98498.38
2022-09-28T11:41:37.290Z,98497.73
2022-09-28T11:47:12.369Z,98496.69
2022-09-28T11:52:22.056Z,98497.46
2022-09-28T11:57:29.502Z,98490.07
2022-09-28T12:02:39.933Z,98485.98
2022-09-28T12:07:47.568Z,98482.14
2022-09-28T12:12:58.781Z,98480.45
2022-09-28T12:18:07.816Z,98485.64
2022-09-28T12:23:19.477Z,98495.17
2022-09-28T12:28:33.468Z,98498.29
2022-09-28T12:33:38.949Z,98496.74
2022-09-28T12:39:18.076Z,98502.50
2022-09-28T12:44:29.036Z,98503.09
2022-09-28T12:50:37.171Z,98508.63
2022-09-28T12:55:37.092Z,98508.30
2022-09-28T13:01:21.674Z,98500.42
2022-09-28T13:07:12.311Z,98502.04
2022-09-28T13:12:24.965Z,98505.83
2022-09-28T13:17:40.462Z,98508.63
2022-09-28T13:23:09.070Z,98510.17
2022-09-28T13:28:15.577Z,98508.08
2022-09-28T13:33:31.014Z,98515.12
2022-09-28T13:38:47.547Z,98509.20
2022-09-28T13:43:50.140Z,98512.93
2022-09-28T13:49:11.434Z,98513.57
2022-09-28T13:54:38.218Z,98518.75
2022-09-28T14:00:11.827Z,98512.96
2022-09-28T14:05:25.049Z,98512.45
2022-09-28T14:10:46.431Z,98508.73
2022-09-28T14:15:49.570Z,98512.34
2022-09-28T14:20:59.271Z,98517.55
2022-09-28T14:26:24.914Z,98524.92
2022-09-28T14:31:29.425Z,98529.19
2022-09-28T14:37:02.173Z,98535.20
2022-09-28T14:42:15.781Z,98535.91
2022-09-28T14:47:35.941Z,98538.41
2022-09-28T14:52:47.681Z,98536.10
2022-09-28T14:57:57.378Z,98541.03
2022-09-28T15:03:07.744Z,98542.45
2022-09-28T15:08:13.464Z,98550.98
2022-09-28T15:13:27.871Z,98552.15
2022-09-28T15:18:42.651Z,98556.01
2022-09-28T15:23:46.869Z,98558.20
2022-09-28T15:28:49.982Z,98560.41
2022-09-28T15:34:15.571Z,98560.54
2022-09-28T15:39:37.296Z,98557.42
2022-09-28T15:44:43.054Z,98553.04
2022-09-28T15:50:04.372Z,98549.49
2022-09-28T15:55:24.741Z,98558.34
2022-09-28T16:00:30.678Z,98567.41
2022-09-28T16:06:05.810Z,98570.02
2022-09-28T16:11:17.037Z,98568.61
2022-09-28T16:16:46.242Z,98572.13
2022-09-28T16:21:51.921Z,98573.77
2022-09-28T16:27:07.097Z,98572.49
2022-09-28T16:32:25.199Z,98574.13
2022-09-28T16:37:32.180Z,98580.64
2022-09-28T16:42:35.815Z,98577.58
2022-09-28T16:47:39.712Z,98583.67
2022-09-28T16:53:01.623Z,98581.30
2022-09-28T16:58:05.010Z,98577.04
2022-09-28T17:03:15.896Z,98573.45
2022-09-28T17:08:21.679Z,98572.20
2022-09-28T17:13:36.008Z,98571.16
2022-09-28T17:18:40.008Z,98574.03
2022-09-28T17:23:47.373Z,98566.85
2022-09-28T17:28:50.074Z,98566.09
2022-09-28T17:33:52.847Z,98569.81
2022-09-28T17:38:55.678Z,98573.45
2022-09-28T17:43:58.552Z,98564.91
2022-09-28T17:49:03.678Z,98559.38
2022-09-28T17:54:08.137Z,98553.27
2022-09-28T17:59:14.548Z,98549.30
2022-09-28T18:04:39.867Z,98553.80
2022-09-28T18:09:40.205Z,98557.30
2022-09-28T18:14:42.920Z,98562.86
2022-09-28T18:19:45.602Z,98563.51
2022-09-28T18:24:48.245Z,98564.11
2022-09-28T18:29:50.885Z,98563.05
2022-09-28T18:34:53.802Z,98566.15
2022-09-28T18:39:56.495Z,98566.95
2022-09-28T18:44:59.159Z,98562.95
2022-09-28T18:50:01.770Z,98561.62
2022-09-28T18:55:06.110Z,98562.89
2022-09-28T19:00:11.217Z,98567.77
2022-09-28T19:05:13.823Z,98564.30
2022-09-28T19:10:16.477Z,98564.12
2022-09-28T19:15:21.088Z,98564.73
2022-09-28T19:20:23.950Z,98562.66
2022-09-28T19:25:26.610Z,98557.82
2022-09-28T19:30:29.881Z,98551.65
2022-09-28T19:35:33.055Z,98564.02
2022-09-28T19:40:37.484Z,98562.71
2022-09-28T19:45:41.355Z,98572.67
2022-09-28T19:50:46.585Z,98574.02
2022-09-28T19:55:56.880Z,98580.36
2022-09-28T20:00:59.662Z,98584.55
2022-09-28T20:06:02.850Z,98591.64
2022-09-28T20:11:06.111Z,98599.19
2022-09-28T20:16:10.463Z,98601.27
2022-09-28T20:21:17.106Z,98607.63
2022-09-28T20:26:20.921Z,98613.45
2022-09-28T20:31:25.145Z,98619.32
2022-09-28T20:36:32.029Z,98619.45
2022-09-28T20:41:35.730Z,98622.73
2022-09-28T20:46:38.557Z,98624.15
2022-09-28T20:51:41.208Z,98623.39
2022-09-28T20:56:43.930Z,98622.16
2022-09-28T21:01:46.723Z,98620.89
2022-09-28T21:06:49.578Z,98615.80
2022-09-28T21:11:52.283Z,98613.52
2022-09-28T21:16:55.183Z,98608.35
2022-09-28T21:21:57.873Z,98605.90
2022-09-28T21:27:00.521Z,98608.45
2022-09-28T21:32:03.277Z,98610.34
2022-09-28T21:37:06.315Z,98611.14
2022-09-28T21:42:08.961Z,98606.79
2022-09-28T21:47:11.680Z,98604.75
2022-09-28T21:52:14.351Z,98595.52
2022-09-28T21:57:18.926Z,98590.67
2022-09-28T22:02:22.677Z,98589.40
2022-09-28T22:07:25.335Z,98592.80
2022-09-28T22:12:31.010Z,98597.56
2022-09-28T22:17:33.692Z,98591.48
2022-09-28T22:22:36.536Z,98588.25
2022-09-28T22:27:40.851Z,98590.33
2022-09-28T22:32:43.646Z,98589.51
2022-09-28T22:37:46.303Z,98588.56
2022-09-28T22:42:49.761Z,98583.45
2022-09-28T22:47:52.471Z,98580.63
2022-09-28T22:52:56.299Z,98582.33
2022-09-28T22:57:58.981Z,98578.71
2022-09-28T23:03:01.871Z,98583.63
2022-09-28T23:08:04.790Z,98587.19
2022-09-28T23:13:07.490Z,98573.59
2022-09-28T23:18:10.399Z,98575.27
2022-09-28T23:23:13.542Z,98571.59
2022-09-28T23:28:16.609Z,98575.80
2022-09-28T23:33:21.153Z,98571.75
2022-09-28T23:38:23.833Z,98571.47
2022-09-28T23:43:26.617Z,98582.59
2022-09-28T23:48:29.555Z,98575.14
2022-09-28T23:53:35.079Z,98568.27
2022-09-28T23:58:37.819Z,98569.48
